sensor_id;sensor_type;location;lat;lon;timestamp;temperature;humidity
13326;DHT22;6732;51.044;3.746;2022-10-16T00:01:30;15.00;99.90
13326;DHT22;6732;51.044;3.746;2022-10-16T00:03:58;15.00;99.90
13326;DHT22;6732;51.044;3.746;2022-10-16T00:06:25;15.00;99.90
13326;DHT22;6732;51.044;3.746;2022-10-16T00:08:52;15.00;99.90
13326;DHT22;6732;51.044;3.746;2022-10-16T00:11:31;15.00;99.90
13326;DHT22;6732;51.044;3.746;2022-10-16T00:14:00;15.00;99.90
13326;DHT22;6732;51.044;3.746;2022-10-16T00:16:27;15.00;99.90
13326;DHT22;6732;51.044;3.746;2022-10-16T00:18:54;15.00;99.90
13326;DHT22;6732;51.044;3.746;2022-10-16T00:21:23;15.00;99.90
13326;DHT22;6732;51.044;3.746;2022-10-16T00:23:52;15.00;99.90
13326;DHT22;6732;51.044;3.746;2022-10-16T00:26:18;15.00;99.90
13326;DHT22;6732;51.044;3.746;2022-10-16T00:28:49;15.00;99.90
13326;DHT22;6732;51.044;3.746;2022-10-16T00:31:17;15.00;99.90
13326;DHT22;6732;51.044;3.746;2022-10-16T00:33:43;15.00;99.90
13326;DHT22;6732;51.044;3.746;2022-10-16T00:36:14;15.00;99.90
13326;DHT22;6732;51.044;3.746;2022-10-16T00:38:40;15.00;99.90
13326;DHT22;6732;51.044;3.746;2022-10-16T00:41:07;15.00;99.90
13326;DHT22;6732;51.044;3.746;2022-10-16T00:43:42;15.00;99.90
13326;DHT22;6732;51.044;3.746;2022-10-16T00:48:57;14.90;99.90
13326;DHT22;6732;51.044;3.746;2022-10-16T00:51:30;14.90;99.90
13326;DHT22;6732;51.044;3.746;2022-10-16T00:53:56;14.90;99.90
13326;DHT22;6732;51.044;3.746;2022-10-16T00:56:23;14.90;99.90
13326;DHT22;6732;51.044;3.746;2022-10-16T00:58:49;14.90;99.90
13326;DHT22;6732;51.044;3.746;2022-10-16T01:01:15;14.90;99.90
13326;DHT22;6732;51.044;3.746;2022-10-16T01:03:41;14.90;99.90
13326;DHT22;6732;51.044;3.746;2022-10-16T01:09:16;14.90;99.90
13326;DHT22;6732;51.044;3.746;2022-10-16T01:20:35;14.90;99.90
13326;DHT22;6732;51.044;3.746;2022-10-16T01:28:51;14.90;99.90
13326;DHT22;6732;51.044;3.746;2022-10-16T01:31:24;14.80;99.90
13326;DHT22;6732;51.044;3.746;2022-10-16T01:34:06;14.90;99.90
13326;DHT22;6732;51.044;3.746;2022-10-16T01:36:38;14.80;99.90
13326;DHT22;6732;51.044;3.746;2022-10-16T01:39:07;14.90;99.90
13326;DHT22;6732;51.044;3.746;2022-10-16T01:41:39;14.80;99.90
13326;DHT22;6732;51.044;3.746;2022-10-16T01:44:21;14.80;99.90
13326;DHT22;6732;51.044;3.746;2022-10-16T01:46:50;14.80;99.90
13326;DHT22;6732;51.044;3.746;2022-10-16T01:49:17;14.80;99.90
13326;DHT22;6732;51.044;3.746;2022-10-16T01:51:46;14.80;99.90
13326;DHT22;6732;51.044;3.746;2022-10-16T01:54:14;14.80;99.90
13326;DHT22;6732;51.044;3.746;2022-10-16T01:56:41;14.80;99.90
13326;DHT22;6732;51.044;3.746;2022-10-16T01:59:19;14.80;99.90
13326;DHT22;6732;51.044;3.746;2022-10-16T02:01:52;14.80;99.90
13326;DHT22;6732;51.044;3.746;2022-10-16T02:04:31;14.80;99.90
13326;DHT22;6732;51.044;3.746;2022-10-16T02:06:57;14.80;99.90
13326;DHT22;6732;51.044;3.746;2022-10-16T02:09:23;14.80;99.90
13326;DHT22;6732;51.044;3.746;2022-10-16T02:11:53;14.80;99.90
13326;DHT22;6732;51.044;3.746;2022-10-16T02:14:20;14.80;99.90
13326;DHT22;6732;51.044;3.746;2022-10-16T02:16:47;14.80;99.90
13326;DHT22;6732;51.044;3.746;2022-10-16T02:19:15;14.80;99.90
13326;DHT22;6732;51.044;3.746;2022-10-16T02:21:50;14.80;99.90
13326;DHT22;6732;51.044;3.746;2022-10-16T02:27:09;14.80;99.90
13326;DHT22;6732;51.044;3.746;2022-10-16T02:30:08;14.80;99.90
13326;DHT22;6732;51.044;3.746;2022-10-16T02:32:37;14.80;99.90
13326;DHT22;6732;51.044;3.746;2022-10-16T02:35:04;14.70;99.90
13326;DHT22;6732;51.044;3.746;2022-10-16T02:37:31;14.70;99.90
13326;DHT22;6732;51.044;3.746;2022-10-16T02:39:58;14.80;99.90
13326;DHT22;6732;51.044;3.746;2022-10-16T02:42:29;14.70;99.90
13326;DHT22;6732;51.044;3.746;2022-10-16T02:44:55;14.70;99.90
13326;DHT22;6732;51.044;3.746;2022-10-16T02:47:21;14.70;99.90
13326;DHT22;6732;51.044;3.746;2022-10-16T02:49:47;14.70;99.90
13326;DHT22;6732;51.044;3.746;2022-10-16T02:52:13;14.70;99.90
13326;DHT22;6732;51.044;3.746;2022-10-16T02:54:39;14.70;99.90
13326;DHT22;6732;51.044;3.746;2022-10-16T02:57:04;14.70;99.90
13326;DHT22;6732;51.044;3.746;2022-10-16T02:59:30;14.70;99.90
13326;DHT22;6732;51.044;3.746;2022-10-16T03:01:56;14.70;99.90
13326;DHT22;6732;51.044;3.746;2022-10-16T03:04:22;14.70;99.90
13326;DHT22;6732;51.044;3.746;2022-10-16T03:06:49;14.70;99.90
13326;DHT22;6732;51.044;3.746;2022-10-16T03:09:15;14.70;99.90
13326;DHT22;6732;51.044;3.746;2022-10-16T03:11:41;14.70;99.90
13326;DHT22;6732;51.044;3.746;2022-10-16T03:14:07;14.70;99.90
13326;DHT22;6732;51.044;3.746;2022-10-16T03:16:33;14.70;99.90
13326;DHT22;6732;51.044;3.746;2022-10-16T03:18:58;14.70;99.90
13326;DHT22;6732;51.044;3.746;2022-10-16T03:21:24;14.70;99.90
13326;DHT22;6732;51.044;3.746;2022-10-16T03:23:50;14.70;99.90
13326;DHT22;6732;51.044;3.746;2022-10-16T03:26:16;14.70;99.90
13326;DHT22;6732;51.044;3.746;2022-10-16T03:28:42;14.70;99.90
13326;DHT22;6732;51.044;3.746;2022-10-16T03:31:08;14.70;99.90
13326;DHT22;6732;51.044;3.746;2022-10-16T03:33:34;14.70;99.90
13326;DHT22;6732;51.044;3.746;2022-10-16T03:36:00;14.70;99.90
13326;DHT22;6732;51.044;3.746;2022-10-16T03:38:26;14.70;99.90
13326;DHT22;6732;51.044;3.746;2022-10-16T03:40:52;14.70;99.90
13326;DHT22;6732;51.044;3.746;2022-10-16T03:43:18;14.70;99.90
13326;DHT22;6732;51.044;3.746;2022-10-16T03:45:44;14.70;99.90
13326;DHT22;6732;51.044;3.746;2022-10-16T03:48:10;14.70;99.90
13326;DHT22;6732;51.044;3.746;2022-10-16T03:50:36;14.70;99.90
13326;DHT22;6732;51.044;3.746;2022-10-16T03:53:03;14.60;99.90
13326;DHT22;6732;51.044;3.746;2022-10-16T03:55:29;14.60;99.90
13326;DHT22;6732;51.044;3.746;2022-10-16T03:57:55;14.60;99.90
13326;DHT22;6732;51.044;3.746;2022-10-16T04:00:21;14.60;99.90
13326;DHT22;6732;51.044;3.746;2022-10-16T04:02:47;14.60;99.90
13326;DHT22;6732;51.044;3.746;2022-10-16T04:05:13;14.60;99.90
13326;DHT22;6732;51.044;3.746;2022-10-16T04:07:38;14.60;99.90
13326;DHT22;6732;51.044;3.746;2022-10-16T04:10:05;14.60;99.90
13326;DHT22;6732;51.044;3.746;2022-10-16T04:12:31;14.60;99.90
13326;DHT22;6732;51.044;3.746;2022-10-16T04:14:57;14.60;99.90
13326;DHT22;6732;51.044;3.746;2022-10-16T04:17:23;14.60;99.90
13326;DHT22;6732;51.044;3.746;2022-10-16T04:19:49;14.60;99.90
13326;DHT22;6732;51.044;3.746;2022-10-16T04:22:14;14.60;99.90
13326;DHT22;6732;51.044;3.746;2022-10-16T04:24:40;14.60;99.90
13326;DHT22;6732;51.044;3.746;2022-10-16T04:27:06;14.60;99.90
13326;DHT22;6732;51.044;3.746;2022-10-16T04:29:32;14.60;99.90
13326;DHT22;6732;51.044;3.746;2022-10-16T04:31:58;14.50;99.90
13326;DHT22;6732;51.044;3.746;2022-10-16T04:34:24;14.50;99.90
13326;DHT22;6732;51.044;3.746;2022-10-16T04:36:50;14.50;99.90
13326;DHT22;6732;51.044;3.746;2022-10-16T04:39:16;14.50;99.90
13326;DHT22;6732;51.044;3.746;2022-10-16T04:41:42;14.50;99.90
13326;DHT22;6732;51.044;3.746;2022-10-16T04:44:08;14.50;99.90
13326;DHT22;6732;51.044;3.746;2022-10-16T04:46:34;14.50;99.90
13326;DHT22;6732;51.044;3.746;2022-10-16T04:49:00;14.50;99.90
13326;DHT22;6732;51.044;3.746;2022-10-16T04:51:26;14.50;99.90
13326;DHT22;6732;51.044;3.746;2022-10-16T04:53:53;14.50;99.90
13326;DHT22;6732;51.044;3.746;2022-10-16T04:56:20;14.50;99.90
13326;DHT22;6732;51.044;3.746;2022-10-16T04:58:47;14.50;99.90
13326;DHT22;6732;51.044;3.746;2022-10-16T05:01:13;14.50;99.90
13326;DHT22;6732;51.044;3.746;2022-10-16T05:03:39;14.50;99.90
13326;DHT22;6732;51.044;3.746;2022-10-16T05:06:06;14.50;99.90
13326;DHT22;6732;51.044;3.746;2022-10-16T05:08:32;14.50;99.90
13326;DHT22;6732;51.044;3.746;2022-10-16T05:10:58;14.50;99.90
13326;DHT22;6732;51.044;3.746;2022-10-16T05:13:24;14.50;99.90
13326;DHT22;6732;51.044;3.746;2022-10-16T05:15:50;14.50;99.90
13326;DHT22;6732;51.044;3.746;2022-10-16T05:18:16;14.50;99.90
13326;DHT22;6732;51.044;3.746;2022-10-16T05:20:42;14.50;99.90
13326;DHT22;6732;51.044;3.746;2022-10-16T05:23:09;14.50;99.90
13326;DHT22;6732;51.044;3.746;2022-10-16T05:25:36;14.50;99.90
13326;DHT22;6732;51.044;3.746;2022-10-16T05:28:02;14.50;99.90
13326;DHT22;6732;51.044;3.746;2022-10-16T05:30:29;14.50;99.90
13326;DHT22;6732;51.044;3.746;2022-10-16T05:32:55;14.50;99.90
13326;DHT22;6732;51.044;3.746;2022-10-16T05:35:21;14.50;99.90
13326;DHT22;6732;51.044;3.746;2022-10-16T05:37:47;14.50;99.90
13326;DHT22;6732;51.044;3.746;2022-10-16T05:40:14;14.50;99.90
13326;DHT22;6732;51.044;3.746;2022-10-16T05:42:40;14.50;99.90
13326;DHT22;6732;51.044;3.746;2022-10-16T05:45:08;14.50;99.90
13326;DHT22;6732;51.044;3.746;2022-10-16T05:47:35;14.50;99.90
13326;DHT22;6732;51.044;3.746;2022-10-16T05:50:01;14.50;99.90
13326;DHT22;6732;51.044;3.746;2022-10-16T05:52:27;14.50;99.90
13326;DHT22;6732;51.044;3.746;2022-10-16T05:54:53;14.50;99.90
13326;DHT22;6732;51.044;3.746;2022-10-16T05:57:19;14.50;99.90
13326;DHT22;6732;51.044;3.746;2022-10-16T05:59:45;14.50;99.90
13326;DHT22;6732;51.044;3.746;2022-10-16T06:02:14;14.50;99.90
13326;DHT22;6732;51.044;3.746;2022-10-16T06:04:40;14.40;99.90
13326;DHT22;6732;51.044;3.746;2022-10-16T06:07:06;14.50;99.90
13326;DHT22;6732;51.044;3.746;2022-10-16T06:09:32;14.40;99.90
13326;DHT22;6732;51.044;3.746;2022-10-16T06:11:58;14.50;99.90
13326;DHT22;6732;51.044;3.746;2022-10-16T06:14:24;14.50;99.90
13326;DHT22;6732;51.044;3.746;2022-10-16T06:16:50;14.40;99.90
13326;DHT22;6732;51.044;3.746;2022-10-16T06:19:16;14.40;99.90
13326;DHT22;6732;51.044;3.746;2022-10-16T06:21:43;14.40;99.90
13326;DHT22;6732;51.044;3.746;2022-10-16T06:24:09;14.40;99.90
13326;DHT22;6732;51.044;3.746;2022-10-16T06:26:36;14.40;99.90
13326;DHT22;6732;51.044;3.746;2022-10-16T06:29:02;14.40;99.90
13326;DHT22;6732;51.044;3.746;2022-10-16T06:31:29;14.40;99.90
13326;DHT22;6732;51.044;3.746;2022-10-16T06:33:57;14.40;99.90
13326;DHT22;6732;51.044;3.746;2022-10-16T06:36:23;14.40;99.90
13326;DHT22;6732;51.044;3.746;2022-10-16T06:38:49;14.40;99.90
13326;DHT22;6732;51.044;3.746;2022-10-16T06:41:19;14.40;99.90
13326;DHT22;6732;51.044;3.746;2022-10-16T06:43:45;14.40;99.90
13326;DHT22;6732;51.044;3.746;2022-10-16T06:46:13;14.40;99.90
13326;DHT22;6732;51.044;3.746;2022-10-16T06:48:39;14.40;99.90
13326;DHT22;6732;51.044;3.746;2022-10-16T06:51:13;14.40;99.90
13326;DHT22;6732;51.044;3.746;2022-10-16T06:53:42;14.40;99.90
13326;DHT22;6732;51.044;3.746;2022-10-16T06:56:25;14.40;99.90
13326;DHT22;6732;51.044;3.746;2022-10-16T06:58:53;14.40;99.90
13326;DHT22;6732;51.044;3.746;2022-10-16T07:01:21;14.40;99.90
13326;DHT22;6732;51.044;3.746;2022-10-16T07:03:47;14.40;99.90
13326;DHT22;6732;51.044;3.746;2022-10-16T07:06:19;14.40;99.90
13326;DHT22;6732;51.044;3.746;2022-10-16T07:08:47;14.40;99.90
13326;DHT22;6732;51.044;3.746;2022-10-16T07:11:16;14.40;99.90
13326;DHT22;6732;51.044;3.746;2022-10-16T07:13:44;14.40;99.90
13326;DHT22;6732;51.044;3.746;2022-10-16T07:16:12;14.40;99.90
13326;DHT22;6732;51.044;3.746;2022-10-16T07:18:39;14.40;99.90
13326;DHT22;6732;51.044;3.746;2022-10-16T07:21:13;14.40;99.90
13326;DHT22;6732;51.044;3.746;2022-10-16T07:23:40;14.40;99.90
13326;DHT22;6732;51.044;3.746;2022-10-16T07:26:07;14.40;99.90
13326;DHT22;6732;51.044;3.746;2022-10-16T07:28:33;14.40;99.90
13326;DHT22;6732;51.044;3.746;2022-10-16T07:31:11;14.40;99.90
13326;DHT22;6732;51.044;3.746;2022-10-16T07:33:38;14.40;99.90
13326;DHT22;6732;51.044;3.746;2022-10-16T07:36:05;14.40;99.90
13326;DHT22;6732;51.044;3.746;2022-10-16T07:38:38;14.40;99.90
13326;DHT22;6732;51.044;3.746;2022-10-16T07:41:06;14.40;99.90
13326;DHT22;6732;51.044;3.746;2022-10-16T07:43:33;14.40;99.90
13326;DHT22;6732;51.044;3.746;2022-10-16T07:45:59;14.40;99.90
13326;DHT22;6732;51.044;3.746;2022-10-16T07:48:30;14.40;99.90
13326;DHT22;6732;51.044;3.746;2022-10-16T07:51:03;14.40;99.90
13326;DHT22;6732;51.044;3.746;2022-10-16T07:53:30;14.40;99.90
13326;DHT22;6732;51.044;3.746;2022-10-16T07:56:04;14.40;99.90
13326;DHT22;6732;51.044;3.746;2022-10-16T07:58:31;14.40;99.90
13326;DHT22;6732;51.044;3.746;2022-10-16T08:03:26;14.40;99.90
13326;DHT22;6732;51.044;3.746;2022-10-16T08:06:00;14.40;99.90
13326;DHT22;6732;51.044;3.746;2022-10-16T08:08:26;14.40;99.90
13326;DHT22;6732;51.044;3.746;2022-10-16T08:10:52;14.40;99.90
13326;DHT22;6732;51.044;3.746;2022-10-16T08:13:18;14.40;99.90
13326;DHT22;6732;51.044;3.746;2022-10-16T08:15:45;14.40;99.90
13326;DHT22;6732;51.044;3.746;2022-10-16T08:18:13;14.40;99.90
13326;DHT22;6732;51.044;3.746;2022-10-16T08:20:40;14.40;99.90
13326;DHT22;6732;51.044;3.746;2022-10-16T08:23:07;14.50;99.90
13326;DHT22;6732;51.044;3.746;2022-10-16T08:25:36;14.50;99.90
13326;DHT22;6732;51.044;3.746;2022-10-16T08:28:07;14.50;99.90
13326;DHT22;6732;51.044;3.746;2022-10-16T08:30:33;14.50;99.90
13326;DHT22;6732;51.044;3.746;2022-10-16T08:33:00;14.50;99.90
13326;DHT22;6732;51.044;3.746;2022-10-16T08:35:26;14.50;99.90
13326;DHT22;6732;51.044;3.746;2022-10-16T08:37:52;14.50;99.90
13326;DHT22;6732;51.044;3.746;2022-10-16T08:40:20;14.50;99.90
13326;DHT22;6732;51.044;3.746;2022-10-16T08:50:32;14.50;99.90
13326;DHT22;6732;51.044;3.746;2022-10-16T08:52:59;14.50;99.90
13326;DHT22;6732;51.044;3.746;2022-10-16T08:58:22;14.50;99.90
13326;DHT22;6732;51.044;3.746;2022-10-16T09:01:00;14.60;99.90
13326;DHT22;6732;51.044;3.746;2022-10-16T09:12:57;14.60;99.90
13326;DHT22;6732;51.044;3.746;2022-10-16T09:15:39;14.60;99.90
13326;DHT22;6732;51.044;3.746;2022-10-16T09:18:16;14.70;99.90
13326;DHT22;6732;51.044;3.746;2022-10-16T09:23:39;14.70;99.90
13326;DHT22;6732;51.044;3.746;2022-10-16T09:26:10;14.70;99.90
13326;DHT22;6732;51.044;3.746;2022-10-16T09:28:37;14.70;99.90
13326;DHT22;6732;51.044;3.746;2022-10-16T09:31:03;14.70;99.90
13326;DHT22;6732;51.044;3.746;2022-10-16T09:33:33;14.80;99.90
13326;DHT22;6732;51.044;3.746;2022-10-16T09:36:03;14.80;99.90
13326;DHT22;6732;51.044;3.746;2022-10-16T09:38:36;14.80;99.90
13326;DHT22;6732;51.044;3.746;2022-10-16T09:41:24;14.80;99.90
13326;DHT22;6732;51.044;3.746;2022-10-16T09:43:56;14.80;99.90
13326;DHT22;6732;51.044;3.746;2022-10-16T09:46:34;14.80;99.90
13326;DHT22;6732;51.044;3.746;2022-10-16T09:49:21;14.90;99.90
13326;DHT22;6732;51.044;3.746;2022-10-16T09:51:47;14.90;99.90
13326;DHT22;6732;51.044;3.746;2022-10-16T09:54:16;14.90;99.90
13326;DHT22;6732;51.044;3.746;2022-10-16T09:56:42;14.90;99.90
13326;DHT22;6732;51.044;3.746;2022-10-16T09:59:15;14.90;99.90
13326;DHT22;6732;51.044;3.746;2022-10-16T10:01:45;14.90;99.90
13326;DHT22;6732;51.044;3.746;2022-10-16T10:04:12;15.00;99.90
13326;DHT22;6732;51.044;3.746;2022-10-16T10:09:24;15.00;99.90
13326;DHT22;6732;51.044;3.746;2022-10-16T10:17:25;15.10;99.90
13326;DHT22;6732;51.044;3.746;2022-10-16T10:19:54;15.20;99.90
13326;DHT22;6732;51.044;3.746;2022-10-16T10:30:29;15.30;99.90
13326;DHT22;6732;51.044;3.746;2022-10-16T10:38:52;15.40;99.90
13326;DHT22;6732;51.044;3.746;2022-10-16T10:47:51;15.50;99.90
13326;DHT22;6732;51.044;3.746;2022-10-16T10:51:01;15.60;99.90
13326;DHT22;6732;51.044;3.746;2022-10-16T11:02:15;15.60;99.90
13326;DHT22;6732;51.044;3.746;2022-10-16T11:07:05;15.70;99.90
13326;DHT22;6732;51.044;3.746;2022-10-16T11:09:42;15.70;99.90
13326;DHT22;6732;51.044;3.746;2022-10-16T11:12:19;15.70;99.90
13326;DHT22;6732;51.044;3.746;2022-10-16T11:15:27;15.70;99.90
13326;DHT22;6732;51.044;3.746;2022-10-16T11:18:03;15.70;99.90
13326;DHT22;6732;51.044;3.746;2022-10-16T11:20:34;15.80;99.90
13326;DHT22;6732;51.044;3.746;2022-10-16T11:25:39;15.80;99.90
13326;DHT22;6732;51.044;3.746;2022-10-16T11:30:39;15.90;99.90
13326;DHT22;6732;51.044;3.746;2022-10-16T11:41:24;16.00;99.90
13326;DHT22;6732;51.044;3.746;2022-10-16T11:44:06;16.10;99.90
13326;DHT22;6732;51.044;3.746;2022-10-16T11:46:38;16.10;99.90
13326;DHT22;6732;51.044;3.746;2022-10-16T11:49:13;16.10;99.90
13326;DHT22;6732;51.044;3.746;2022-10-16T11:51:50;16.10;99.90
13326;DHT22;6732;51.044;3.746;2022-10-16T11:54:57;16.10;99.90
13326;DHT22;6732;51.044;3.746;2022-10-16T11:57:31;16.10;99.90
13326;DHT22;6732;51.044;3.746;2022-10-16T12:00:08;16.20;99.90
13326;DHT22;6732;51.044;3.746;2022-10-16T12:06:05;16.20;99.90
13326;DHT22;6732;51.044;3.746;2022-10-16T12:08:34;16.30;99.90
13326;DHT22;6732;51.044;3.746;2022-10-16T12:11:31;16.30;99.90
13326;DHT22;6732;51.044;3.746;2022-10-16T12:17:21;16.30;99.90
13326;DHT22;6732;51.044;3.746;2022-10-16T12:20:00;16.30;99.90
13326;DHT22;6732;51.044;3.746;2022-10-16T12:25:36;16.40;99.90
13326;DHT22;6732;51.044;3.746;2022-10-16T12:28:05;16.40;99.90
13326;DHT22;6732;51.044;3.746;2022-10-16T12:30:35;16.40;99.90
